LIBD/BRI METAR and TAF weather

Enter ICAO airport designator
Station Type Date Time Source
LIBD METAR 2021/09/24 03:50 UTC NOAA

LIBD 240350Z 22005KT CAVOK 11/07 Q1020


Station Type Date Time Source
LIBD Decoded METAR 2021/09/24 03:50 UTC NOAA

Bari / Palese Macchie, Italy (LIBD) 41-08N 016-47E 49M
Sep 23, 2021 - 11:50 PM EDT / 2021.09.24 0350 UTC
Wind: from the SW (220 degrees) at 6 MPH (5 KT):0
Visibility: greater than 7 mile(s):0
Temperature: 51 F (11 C)
Dew Point: 44 F (7 C)
Relative Humidity: 76%
Pressure (altimeter): 30.12 in. Hg (1020 hPa)
ob: LIBD 240350Z 22005KT CAVOK 11/07 Q1020
cycle: 4

Station Type Date Time Source
LIBD TAF 2021/09/23 18:26 UTC NOAA

TAF LIBD 231700Z 2318/2418 35010KT CAVOK
BECMG 2320/2322 26007KT
BECMG 2410/2412 04010KT

Example: see airport list